createdAt,value
2019-03-21T00:01:30.073Z,27.00
2019-03-21T00:04:04.724Z,27.10
2019-03-21T00:06:37.926Z,27.20
2019-03-21T00:09:12.691Z,27.20
2019-03-21T00:11:47.490Z,27.40
2019-03-21T00:14:22.311Z,27.40
2019-03-21T00:16:54.873Z,27.40
2019-03-21T00:19:27.369Z,27.50
2019-03-21T00:21:59.794Z,27.70
2019-03-21T00:24:32.404Z,27.70
2019-03-21T00:27:04.964Z,27.80
2019-03-21T00:29:37.477Z,27.90
2019-03-21T00:32:10.741Z,27.90
2019-03-21T00:34:43.235Z,27.90
2019-03-21T00:37:15.717Z,28.00
2019-03-21T00:39:48.393Z,28.00
2019-03-21T00:42:21.084Z,28.10
2019-03-21T00:44:53.803Z,28.20
2019-03-21T00:47:26.483Z,28.30
2019-03-21T00:49:59.395Z,28.50
2019-03-21T00:52:31.831Z,28.60
2019-03-21T00:55:04.028Z,28.80
2019-03-21T00:57:36.391Z,28.80
2019-03-21T01:00:11.067Z,28.90
2019-03-21T01:02:43.642Z,29.00
2019-03-21T01:05:16.618Z,29.10
2019-03-21T01:07:49.570Z,29.20
2019-03-21T01:10:24.167Z,29.20
2019-03-21T01:12:56.648Z,29.20
2019-03-21T01:15:29.193Z,29.30
2019-03-21T01:18:02.786Z,29.30
2019-03-21T01:20:35.291Z,29.50
2019-03-21T01:23:07.941Z,29.60
2019-03-21T01:25:43.066Z,29.60
2019-03-21T01:28:15.703Z,29.90
2019-03-21T01:30:48.069Z,30.10
2019-03-21T01:33:20.814Z,30.20
2019-03-21T01:35:53.390Z,30.40
2019-03-21T01:38:26.056Z,30.20
2019-03-21T01:41:00.531Z,30.30
2019-03-21T01:43:33.125Z,30.60
2019-03-21T01:46:07.872Z,30.60
2019-03-21T01:48:40.524Z,30.70
2019-03-21T01:51:13.238Z,30.90
2019-03-21T01:53:45.952Z,31.10
2019-03-21T01:56:18.279Z,31.10
2019-03-21T01:58:51.243Z,31.30
2019-03-21T02:01:23.918Z,31.40
2019-03-21T02:03:57.555Z,31.30
2019-03-21T02:06:29.999Z,31.60
2019-03-21T02:09:02.266Z,31.70
2019-03-21T02:11:34.810Z,31.80
2019-03-21T02:14:07.523Z,32.00
2019-03-21T02:16:40.316Z,31.90
2019-03-21T02:19:12.710Z,32.10
2019-03-21T02:21:45.146Z,32.30
2019-03-21T02:24:17.569Z,32.60
2019-03-21T02:26:50.115Z,32.20
2019-03-21T02:29:22.594Z,32.20
2019-03-21T02:31:55.369Z,32.60
2019-03-21T02:34:29.104Z,32.30
2019-03-21T02:37:01.550Z,32.50
2019-03-21T02:39:34.061Z,32.80
2019-03-21T02:42:06.407Z,32.70
2019-03-21T02:44:39.091Z,33.10
2019-03-21T02:47:11.542Z,33.40
2019-03-21T02:49:44.162Z,33.40
2019-03-21T02:52:16.665Z,33.40
2019-03-21T02:54:49.209Z,33.50
2019-03-21T02:57:21.920Z,33.90
2019-03-21T02:59:54.338Z,34.00
2019-03-21T03:02:26.947Z,34.10
2019-03-21T03:05:00.949Z,34.50
2019-03-21T03:07:33.659Z,34.50
2019-03-21T03:10:09.070Z,34.50
2019-03-21T03:12:41.759Z,34.60
2019-03-21T03:15:22.820Z,34.50
2019-03-21T03:17:50.542Z,34.80
2019-03-21T03:20:22.991Z,34.30
2019-03-21T03:22:55.600Z,34.70
2019-03-21T03:25:28.426Z,35.00
2019-03-21T03:28:03.800Z,34.80
2019-03-21T03:30:36.550Z,35.10
2019-03-21T03:33:09.005Z,35.10
2019-03-21T03:35:41.816Z,35.00
2019-03-21T03:38:14.244Z,34.90
2019-03-21T03:40:49.053Z,35.40
2019-03-21T03:43:21.406Z,35.70
2019-03-21T03:45:54.069Z,35.40
2019-03-21T03:48:27.879Z,35.60
2019-03-21T03:51:00.070Z,35.40
2019-03-21T03:53:33.247Z,34.80
2019-03-21T03:56:05.966Z,35.40
2019-03-21T03:58:42.294Z,36.10
2019-03-21T04:01:15.344Z,35.60
2019-03-21T04:03:48.632Z,35.90
2019-03-21T04:06:21.447Z,36.30
2019-03-21T04:08:53.768Z,35.50
2019-03-21T04:11:26.214Z,35.70
2019-03-21T04:13:58.680Z,35.60
2019-03-21T04:16:31.054Z,35.90
2019-03-21T04:19:03.240Z,36.10
2019-03-21T04:21:35.849Z,36.50
2019-03-21T04:24:08.294Z,36.60
2019-03-21T04:26:40.662Z,36.90
2019-03-21T04:29:31.918Z,37.00
2019-03-21T04:32:04.282Z,36.90
2019-03-21T04:34:36.679Z,37.30
2019-03-21T04:37:09.124Z,37.00
2019-03-21T04:39:41.409Z,37.20
2019-03-21T04:42:14.545Z,37.40
2019-03-21T04:44:47.758Z,37.70
2019-03-21T04:47:20.361Z,37.60
2019-03-21T04:49:52.972Z,37.90
2019-03-21T04:52:26.066Z,37.80
2019-03-21T04:54:58.923Z,37.20
2019-03-21T04:57:31.424Z,37.60
2019-03-21T05:00:03.752Z,37.90
2019-03-21T05:02:36.502Z,38.00
2019-03-21T05:05:11.110Z,38.40
2019-03-21T05:07:43.777Z,38.60
2019-03-21T05:10:18.114Z,38.90
2019-03-21T05:12:50.800Z,38.60
2019-03-21T05:15:25.655Z,39.00
2019-03-21T05:18:00.791Z,39.50
2019-03-21T05:20:33.287Z,38.70
2019-03-21T05:23:05.842Z,38.80
2019-03-21T05:25:38.712Z,39.40
2019-03-21T05:28:11.307Z,39.10
2019-03-21T05:30:46.286Z,39.10
2019-03-21T05:33:19.099Z,39.40
2019-03-21T05:35:51.301Z,39.20
2019-03-21T05:38:25.661Z,39.00
2019-03-21T05:40:58.016Z,39.40
2019-03-21T05:43:32.975Z,39.60
2019-03-21T05:46:05.485Z,40.00
2019-03-21T05:48:38.019Z,39.60
2019-03-21T05:51:10.785Z,39.40
2019-03-21T05:53:42.989Z,39.40
2019-03-21T05:56:15.583Z,39.90
2019-03-21T05:58:47.811Z,39.40
2019-03-21T06:01:20.054Z,39.80
2019-03-21T06:03:54.345Z,39.60
2019-03-21T06:06:29.323Z,40.00
2019-03-21T06:09:01.703Z,40.40
2019-03-21T06:11:34.942Z,40.60
2019-03-21T06:14:07.297Z,40.30
2019-03-21T06:16:39.820Z,40.30
2019-03-21T06:19:14.504Z,40.20
2019-03-21T06:21:49.140Z,39.90
2019-03-21T06:24:23.839Z,39.90
2019-03-21T06:26:58.423Z,40.10
2019-03-21T06:29:30.675Z,40.20
2019-03-21T06:32:03.008Z,40.40
2019-03-21T06:34:35.729Z,40.00
2019-03-21T06:37:08.220Z,39.20
2019-03-21T06:39:40.622Z,39.00
2019-03-21T06:42:13.414Z,38.10
2019-03-21T06:44:45.943Z,38.60
2019-03-21T06:47:18.491Z,39.10
2019-03-21T06:49:50.942Z,38.80
2019-03-21T06:52:23.354Z,38.60
2019-03-21T06:54:59.573Z,38.50
2019-03-21T06:57:30.651Z,39.20
2019-03-21T07:00:03.592Z,39.80
2019-03-21T07:02:36.328Z,39.80
2019-03-21T07:05:09.796Z,39.40
2019-03-21T07:07:42.372Z,39.50
2019-03-21T07:10:14.866Z,39.80
2019-03-21T07:12:47.351Z,38.90
2019-03-21T07:15:20.312Z,38.90
2019-03-21T07:17:52.780Z,39.70
2019-03-21T07:20:25.727Z,40.50
2019-03-21T07:22:57.959Z,40.70
2019-03-21T07:25:30.525Z,41.00
2019-03-21T07:28:03.809Z,40.80
2019-03-21T07:30:36.415Z,41.20
2019-03-21T07:33:08.677Z,40.70
2019-03-21T07:35:41.258Z,39.70
2019-03-21T07:38:15.045Z,40.20
2019-03-21T07:40:47.551Z,40.60
2019-03-21T07:43:22.207Z,40.80
2019-03-21T07:45:54.471Z,40.40
2019-03-21T07:48:26.947Z,40.40
2019-03-21T07:50:59.874Z,40.30
2019-03-21T07:53:32.652Z,40.70
2019-03-21T07:56:17.849Z,40.40
2019-03-21T07:58:50.402Z,40.20
2019-03-21T08:01:23.223Z,40.40
2019-03-21T08:03:55.689Z,40.70
2019-03-21T08:06:28.211Z,41.00
2019-03-21T08:09:00.361Z,41.20
2019-03-21T08:11:33.909Z,41.20
2019-03-21T08:14:06.338Z,41.10
2019-03-21T08:16:38.815Z,41.10
2019-03-21T08:19:11.193Z,40.90
2019-03-21T08:21:43.931Z,40.70
2019-03-21T08:24:16.262Z,41.00
2019-03-21T08:26:48.928Z,40.90
2019-03-21T08:29:21.357Z,40.50
2019-03-21T08:31:54.300Z,40.60
2019-03-21T08:34:26.699Z,40.60
2019-03-21T08:36:59.126Z,40.30
2019-03-21T08:39:31.568Z,40.10
2019-03-21T08:42:03.996Z,40.00
2019-03-21T08:44:55.327Z,40.20
2019-03-21T08:47:28.055Z,40.20
2019-03-21T08:50:00.336Z,40.40
2019-03-21T08:52:32.690Z,40.50
2019-03-21T08:55:06.944Z,40.40
2019-03-21T08:57:40.886Z,39.60
2019-03-21T09:00:16.572Z,39.40
2019-03-21T09:02:49.136Z,39.50
2019-03-21T09:05:21.642Z,39.80
2019-03-21T09:07:54.044Z,40.00
2019-03-21T09:10:26.293Z,39.90
2019-03-21T09:12:59.164Z,39.50
2019-03-21T09:15:32.042Z,39.70
2019-03-21T09:18:04.369Z,39.80
2019-03-21T09:20:37.892Z,39.60
2019-03-21T09:23:10.378Z,39.50
2019-03-21T09:25:42.706Z,39.50
2019-03-21T09:28:14.903Z,39.40
2019-03-21T09:30:47.286Z,39.20
2019-03-21T09:33:19.928Z,39.30
2019-03-21T09:35:52.307Z,39.50
2019-03-21T09:38:24.976Z,39.40
2019-03-21T09:40:57.298Z,39.20
2019-03-21T09:43:29.495Z,39.20
2019-03-21T09:46:01.820Z,38.80
2019-03-21T09:48:34.803Z,38.80
2019-03-21T09:51:07.329Z,38.60
2019-03-21T09:53:39.990Z,38.40
2019-03-21T09:56:12.407Z,38.40
2019-03-21T09:58:44.812Z,38.30
2019-03-21T10:01:17.301Z,38.10
2019-03-21T10:03:51.078Z,38.10
2019-03-21T10:06:23.493Z,38.10
2019-03-21T10:08:56.548Z,38.20
2019-03-21T10:11:29.157Z,38.00
2019-03-21T10:14:01.456Z,38.00
2019-03-21T10:16:34.083Z,37.90
2019-03-21T10:19:06.897Z,37.90
2019-03-21T10:21:43.685Z,37.80
2019-03-21T10:24:13.337Z,37.60
2019-03-21T10:26:45.808Z,37.50
2019-03-21T10:29:18.350Z,37.40
2019-03-21T10:31:51.145Z,37.30
2019-03-21T10:34:23.758Z,37.20
2019-03-21T10:36:56.451Z,37.10
2019-03-21T10:39:29.162Z,37.00
2019-03-21T10:42:01.747Z,36.90
2019-03-21T10:44:34.289Z,36.70
2019-03-21T10:47:06.926Z,36.70
2019-03-21T10:49:39.522Z,36.70
2019-03-21T10:52:11.963Z,36.50
2019-03-21T10:54:44.304Z,36.40
2019-03-21T10:57:17.124Z,36.30
2019-03-21T10:59:49.830Z,36.20
2019-03-21T11:02:22.671Z,36.10
2019-03-21T11:04:55.294Z,36.00
2019-03-21T11:07:26.884Z,36.00
2019-03-21T11:09:59.363Z,35.90
2019-03-21T11:12:31.871Z,35.90
2019-03-21T11:15:04.359Z,35.80
2019-03-21T11:17:36.784Z,35.80
2019-03-21T11:20:09.228Z,35.70
2019-03-21T11:22:41.595Z,35.60
2019-03-21T11:25:14.401Z,35.50
2019-03-21T11:27:46.683Z,35.40
2019-03-21T11:30:21.782Z,35.30
2019-03-21T11:32:55.956Z,35.30
2019-03-21T11:35:28.558Z,35.20
2019-03-21T11:38:00.962Z,35.10
2019-03-21T11:40:33.779Z,35.10
2019-03-21T11:43:07.736Z,35.00
2019-03-21T11:45:40.541Z,35.00
2019-03-21T11:48:14.573Z,34.90
2019-03-21T11:50:46.981Z,34.90
2019-03-21T11:53:19.627Z,34.90
2019-03-21T11:55:52.229Z,34.80
2019-03-21T11:58:24.983Z,34.80
2019-03-21T12:00:57.505Z,34.80
2019-03-21T12:03:30.045Z,34.80
2019-03-21T12:06:02.215Z,34.70
2019-03-21T12:08:39.522Z,34.70
2019-03-21T12:11:14.358Z,34.60
2019-03-21T12:13:46.614Z,34.60
2019-03-21T12:16:19.518Z,34.50
2019-03-21T12:18:51.951Z,34.50
2019-03-21T12:21:24.575Z,34.40
2019-03-21T12:23:56.933Z,34.30
2019-03-21T12:26:29.372Z,34.40
2019-03-21T12:29:01.571Z,34.40
2019-03-21T12:31:34.177Z,34.40
2019-03-21T12:34:06.533Z,34.30
2019-03-21T12:36:43.856Z,34.20
2019-03-21T12:39:17.208Z,34.20
2019-03-21T12:41:51.754Z,34.20
2019-03-21T12:44:24.493Z,34.10
2019-03-21T12:46:56.671Z,34.00
2019-03-21T12:49:42.491Z,34.00
2019-03-21T12:52:17.361Z,34.00
2019-03-21T12:54:49.847Z,34.00
2019-03-21T12:57:22.498Z,34.00
2019-03-21T12:59:56.027Z,34.00
2019-03-21T13:02:32.340Z,34.00
2019-03-21T13:05:16.391Z,34.00
2019-03-21T13:07:49.130Z,33.90
2019-03-21T13:10:21.551Z,33.90
2019-03-21T13:12:54.551Z,33.90
2019-03-21T13:15:30.665Z,33.90
2019-03-21T13:18:04.738Z,33.80
2019-03-21T13:20:37.107Z,33.70
2019-03-21T13:23:09.676Z,33.70
2019-03-21T13:25:41.957Z,33.70
2019-03-21T13:28:15.314Z,33.60
2019-03-21T13:30:49.129Z,33.60
2019-03-21T13:33:21.742Z,33.50
2019-03-21T13:35:54.592Z,33.60
2019-03-21T13:38:27.114Z,33.50
2019-03-21T13:40:59.611Z,33.50
2019-03-21T13:43:33.054Z,33.50
2019-03-21T13:46:05.716Z,33.40
2019-03-21T13:48:38.096Z,33.30
2019-03-21T13:51:10.597Z,33.40
2019-03-21T13:53:43.141Z,33.30
2019-03-21T13:56:15.474Z,33.30
2019-03-21T13:58:49.264Z,33.40
2019-03-21T14:01:21.500Z,33.30
2019-03-21T14:03:54.584Z,33.30
2019-03-21T14:06:27.487Z,33.30
2019-03-21T14:08:59.718Z,33.20
2019-03-21T14:11:31.982Z,33.10
2019-03-21T14:14:04.136Z,33.10
2019-03-21T14:16:41.465Z,33.10
2019-03-21T14:19:14.045Z,33.10
2019-03-21T14:21:46.500Z,33.00
2019-03-21T14:24:19.328Z,33.00
2019-03-21T14:26:52.035Z,33.00
2019-03-21T14:29:24.647Z,33.00
2019-03-21T14:31:57.104Z,33.00
2019-03-21T14:34:29.495Z,32.90
2019-03-21T14:37:02.066Z,32.90
2019-03-21T14:39:35.173Z,32.80
2019-03-21T14:42:07.448Z,32.70
2019-03-21T14:44:40.042Z,32.80
2019-03-21T14:47:12.327Z,32.70
2019-03-21T14:49:45.496Z,32.70
2019-03-21T14:52:17.926Z,32.70
2019-03-21T14:54:50.435Z,32.60
2019-03-21T14:57:22.889Z,32.60
2019-03-21T14:59:55.745Z,32.50
2019-03-21T15:02:28.225Z,32.40
2019-03-21T15:05:00.791Z,32.40
2019-03-21T15:07:33.466Z,32.40
2019-03-21T15:10:08.429Z,32.30
2019-03-21T15:12:41.647Z,32.30
2019-03-21T15:15:16.488Z,32.20
2019-03-21T15:17:48.999Z,32.10
2019-03-21T15:20:21.403Z,32.10
2019-03-21T15:22:53.634Z,32.10
2019-03-21T15:25:26.205Z,32.10
2019-03-21T15:27:58.489Z,32.00
2019-03-21T15:30:31.303Z,31.90
2019-03-21T15:33:03.734Z,31.90
2019-03-21T15:35:36.561Z,31.90
2019-03-21T15:38:08.774Z,31.90
2019-03-21T15:40:41.156Z,31.80
2019-03-21T15:43:13.733Z,31.80
2019-03-21T15:45:46.221Z,31.70
2019-03-21T15:48:20.827Z,31.70
2019-03-21T15:51:03.550Z,31.70
2019-03-21T15:53:26.357Z,31.60
2019-03-21T15:55:59.037Z,31.60
2019-03-21T15:58:44.661Z,31.60
2019-03-21T16:01:16.949Z,31.70
2019-03-21T16:03:49.170Z,31.90
2019-03-21T16:06:21.872Z,32.00
2019-03-21T16:08:54.502Z,32.00
2019-03-21T16:11:27.967Z,32.10
2019-03-21T16:14:00.269Z,32.10
2019-03-21T16:16:32.636Z,32.10
2019-03-21T16:19:04.946Z,32.10
2019-03-21T16:21:37.305Z,32.10
2019-03-21T16:24:21.625Z,31.80
2019-03-21T16:26:53.948Z,31.70
2019-03-21T16:29:26.729Z,31.70
2019-03-21T16:31:59.568Z,31.70
2019-03-21T16:34:33.242Z,31.70
2019-03-21T16:37:06.607Z,31.60
2019-03-21T16:39:39.171Z,31.60
2019-03-21T16:42:11.363Z,31.60
2019-03-21T16:44:44.223Z,31.60
2019-03-21T16:47:16.428Z,31.50
2019-03-21T16:49:49.074Z,31.40
2019-03-21T16:52:21.531Z,31.40
2019-03-21T16:54:53.885Z,31.30
2019-03-21T16:57:26.439Z,31.20
2019-03-21T16:59:58.838Z,31.20
2019-03-21T17:02:31.406Z,31.20
2019-03-21T17:05:04.197Z,31.20
2019-03-21T17:07:36.734Z,31.20
2019-03-21T17:10:11.213Z,31.10
2019-03-21T17:12:44.653Z,31.10
2019-03-21T17:15:18.202Z,31.00
2019-03-21T17:17:50.635Z,31.00
2019-03-21T17:20:23.635Z,30.90
2019-03-21T17:22:56.509Z,30.80
2019-03-21T17:25:31.145Z,30.80
2019-03-21T17:28:03.042Z,30.60
2019-03-21T17:30:35.621Z,30.60
2019-03-21T17:33:08.299Z,30.30
2019-03-21T17:35:40.857Z,30.00
2019-03-21T17:38:13.270Z,29.90
2019-03-21T17:40:46.206Z,29.90
2019-03-21T17:43:18.552Z,30.00
2019-03-21T17:45:51.284Z,29.90
2019-03-21T17:48:23.610Z,29.60
2019-03-21T17:50:56.290Z,29.90
2019-03-21T17:53:28.755Z,29.70
2019-03-21T17:56:01.316Z,29.80
2019-03-21T17:58:33.692Z,29.80
2019-03-21T18:01:06.669Z,29.70
2019-03-21T18:03:39.311Z,29.70
2019-03-21T18:06:11.997Z,29.80
2019-03-21T18:08:44.605Z,29.80
2019-03-21T18:11:17.550Z,29.20
2019-03-21T18:13:50.236Z,29.50
2019-03-21T18:16:22.889Z,29.60
2019-03-21T18:18:55.506Z,29.70
2019-03-21T18:21:28.078Z,29.60
2019-03-21T18:24:00.452Z,29.50
2019-03-21T18:26:33.363Z,29.50
2019-03-21T18:29:06.384Z,29.30
2019-03-21T18:31:39.205Z,29.20
2019-03-21T18:34:11.925Z,29.10
2019-03-21T18:36:44.577Z,29.20
2019-03-21T18:39:17.378Z,29.20
2019-03-21T18:41:50.396Z,29.00
2019-03-21T18:44:22.790Z,29.10
2019-03-21T18:46:55.570Z,29.00
2019-03-21T18:49:28.526Z,29.20
2019-03-21T18:52:00.866Z,29.20
2019-03-21T18:54:34.271Z,29.10
2019-03-21T18:57:07.165Z,29.00
2019-03-21T18:59:39.746Z,29.00
2019-03-21T19:02:13.037Z,29.10
2019-03-21T19:04:45.638Z,29.00
2019-03-21T19:07:18.371Z,28.90
2019-03-21T19:09:50.785Z,28.80
2019-03-21T19:12:23.912Z,28.80
2019-03-21T19:14:56.545Z,28.60
2019-03-21T19:17:29.111Z,28.60
2019-03-21T19:20:01.417Z,28.60
2019-03-21T19:22:34.046Z,28.40
2019-03-21T19:25:17.950Z,28.50
2019-03-21T19:27:42.288Z,28.70
2019-03-21T19:30:16.923Z,28.60
2019-03-21T19:32:51.035Z,28.70
2019-03-21T19:35:23.976Z,28.60
2019-03-21T19:37:56.485Z,28.60
2019-03-21T19:40:29.119Z,28.60
2019-03-21T19:43:01.533Z,28.10
2019-03-21T19:45:33.950Z,28.00
2019-03-21T19:48:06.502Z,28.30
2019-03-21T19:50:39.009Z,28.40
2019-03-21T19:53:11.542Z,28.40
2019-03-21T19:55:43.896Z,28.40
2019-03-21T19:58:16.749Z,28.50
2019-03-21T20:00:49.444Z,28.50
2019-03-21T20:03:22.713Z,28.60
2019-03-21T20:06:00.116Z,28.60
2019-03-21T20:08:29.056Z,28.50
2019-03-21T20:11:02.458Z,28.50
2019-03-21T20:13:35.194Z,28.40
2019-03-21T20:16:07.597Z,28.40
2019-03-21T20:18:40.135Z,28.40
2019-03-21T20:21:13.821Z,28.50
2019-03-21T20:23:46.538Z,28.50
2019-03-21T20:26:19.247Z,28.50
2019-03-21T20:28:51.939Z,28.50
2019-03-21T20:31:24.999Z,28.30
2019-03-21T20:33:57.788Z,28.10
2019-03-21T20:36:30.321Z,28.30
2019-03-21T20:39:03.129Z,28.30
2019-03-21T20:41:36.154Z,28.40
2019-03-21T20:44:15.052Z,28.30
2019-03-21T20:46:42.857Z,28.30
2019-03-21T20:49:15.391Z,28.30
2019-03-21T20:51:47.780Z,28.20
2019-03-21T20:54:20.539Z,28.00
2019-03-21T20:56:53.065Z,27.90
2019-03-21T20:59:25.518Z,27.90
2019-03-21T21:02:02.546Z,27.90
2019-03-21T21:04:32.103Z,28.00
2019-03-21T21:07:04.269Z,28.00
2019-03-21T21:09:37.048Z,27.90
2019-03-21T21:12:09.487Z,27.80
2019-03-21T21:14:42.357Z,27.70
2019-03-21T21:17:14.778Z,27.60
2019-03-21T21:19:47.263Z,27.60
2019-03-21T21:22:20.051Z,27.70
2019-03-21T21:24:53.353Z,27.70
2019-03-21T21:27:26.199Z,27.60
2019-03-21T21:29:58.770Z,27.70
2019-03-21T21:32:31.144Z,27.60
2019-03-21T21:35:03.390Z,27.60
2019-03-21T21:37:35.762Z,27.60
2019-03-21T21:40:09.739Z,27.50
2019-03-21T21:42:42.238Z,27.50
2019-03-21T21:45:17.963Z,27.50
2019-03-21T21:47:50.414Z,27.40
2019-03-21T21:50:23.099Z,27.50
2019-03-21T21:52:55.544Z,27.40
2019-03-21T21:55:28.308Z,27.40
2019-03-21T21:58:00.792Z,27.40
2019-03-21T22:00:33.481Z,27.40
2019-03-21T22:03:05.794Z,27.40
2019-03-21T22:05:38.575Z,27.30
2019-03-21T22:08:10.903Z,27.30
2019-03-21T22:10:43.471Z,27.30
2019-03-21T22:13:15.950Z,27.20
2019-03-21T22:15:48.503Z,27.30
2019-03-21T22:18:20.853Z,27.20
2019-03-21T22:20:54.245Z,27.20
2019-03-21T22:23:26.829Z,27.00
2019-03-21T22:25:59.400Z,27.20
2019-03-21T22:28:31.793Z,26.90
2019-03-21T22:31:04.532Z,27.00
2019-03-21T22:33:36.889Z,26.90
2019-03-21T22:36:09.511Z,26.80
2019-03-21T22:38:42.111Z,26.90
2019-03-21T22:41:14.668Z,26.90
2019-03-21T22:43:47.236Z,26.80
2019-03-21T22:46:19.843Z,26.60
2019-03-21T22:48:52.243Z,26.60
2019-03-21T22:51:24.793Z,26.50
2019-03-21T22:53:57.390Z,26.60
2019-03-21T22:56:40.538Z,26.60
2019-03-21T22:59:03.560Z,26.60
2019-03-21T23:01:36.323Z,26.40
2019-03-21T23:04:08.794Z,26.30
2019-03-21T23:06:41.595Z,26.50
2019-03-21T23:09:14.085Z,26.50
2019-03-21T23:11:46.544Z,26.60
2019-03-21T23:14:19.604Z,26.40
2019-03-21T23:16:52.141Z,26.30
2019-03-21T23:19:24.527Z,26.20
2019-03-21T23:21:57.040Z,26.20
2019-03-21T23:24:29.624Z,26.10
2019-03-21T23:27:02.271Z,26.20
2019-03-21T23:29:34.773Z,26.10
2019-03-21T23:32:07.716Z,26.20
2019-03-21T23:34:40.105Z,26.30
2019-03-21T23:37:12.888Z,26.50
2019-03-21T23:39:45.330Z,26.30
2019-03-21T23:42:18.166Z,26.20
2019-03-21T23:44:50.884Z,26.20
2019-03-21T23:47:23.770Z,26.50
2019-03-21T23:49:56.052Z,26.50
2019-03-21T23:52:28.578Z,26.40
2019-03-21T23:55:01.216Z,26.50
2019-03-21T23:57:33.840Z,26.60
